METAR Data
IDs: Format: Raw Decoded Include TAF

Data at: 1546 UTC 21 Sep 2018

K1F0 211535Z AUTO 17004KT 10SM OVC016 24/22 A2996 RMK AO2 TSNO
K1F0 211515Z AUTO 15007KT 10SM SCT007 OVC016 23/22 A2996 RMK AO2 TSNO
K1F0 211455Z AUTO 15004KT 10SM BKN007 OVC014 23/22 A2996 RMK AO2 TSNO
K1F0 211435Z AUTO 12005KT 10SM BKN009 OVC014 23/22 A2996 RMK AO2 TSNO
K1F0 211415Z AUTO 12004KT 7SM OVC009 23/21 A2995 RMK AO2 TSNO
K1F0 211355Z AUTO 13003KT 7SM BKN011 OVC019 22/21 A2996 RMK AO2 P0033 TSNO
K1F0 211335Z AUTO 10003KT 4SM -RA SCT012 BKN019 OVC031 22/21 A2995 RMK AO2 P0032 TSNO
K1F0 211315Z AUTO 12003KT 2SM -RA BKN004 BKN008 OVC015 22/21 A2996 RMK AO2 P0023 TSNO
K1F0 211255Z AUTO 13005KT 1 3/4SM +RA SCT004 BKN009 OVC014 22/21 A2996 RMK AO2 P0020 TSNO
K1F0 211235Z AUTO 14004KT 10SM OVC012 22/21 A2995 RMK AO2 TSNO
K1F0 211215Z AUTO 12003KT 7SM OVC012 22/21 A2994 RMK AO2 TSNO
K1F0 211155Z AUTO 00000KT 10SM OVC014 22/21 A2994 RMK AO2 TSNO
K1F0 211135Z AUTO 00000KT 10SM SCT010 OVC014 22/21 A2994 RMK AO2 TSNO
K1F0 211115Z AUTO 00000KT 10SM SCT010 OVC016 22/20 A2993 RMK AO2 TSNO
K1F0 211055Z AUTO 15003KT 10SM OVC016 22/20 A2993 RMK AO2 TSNO
K1F0 211035Z AUTO 14003KT 10SM OVC018 22/20 A2993 RMK AO2 TSNO
K1F0 211015Z AUTO 08003KT 10SM OVC020 22/20 A2994 RMK AO2 TSNO
K1F0 210955Z AUTO 09003KT 10SM OVC020 22/20 A2994 RMK AO2 TSNO
K1F0 210935Z AUTO 00000KT 10SM BKN020 BKN029 OVC041 22/20 A2994 RMK AO2 TSNO
K1F0 210915Z AUTO 00000KT 10SM -RA SCT022 BKN041 OVC075 23/20 A2994 RMK AO2 TSNO
K1F0 210415Z AUTO 16005KT 10SM CLR 25/17 A2995 RMK AO2 TSNO
K1F0 210355Z AUTO 18006KT 10SM CLR 25/17 A2995 RMK AO2 TSNO
K1F0 210335Z AUTO 16008KT 10SM CLR 25/17 A2994 RMK AO2 TSNO
K1F0 210315Z AUTO 17008KT 10SM CLR 25/17 A2994 RMK AO2 TSNO
K1F0 210250Z AUTO 16006KT 10SM CLR 25/18 A2994 RMK AO2 TSNO
K1F0 202315Z AUTO 15010G16KT 10SM CLR 30/18 A2986 RMK AO2 TSNO
K1F0 202255Z AUTO 14011G15KT 10SM CLR 31/18 A2986 RMK AO2 TSNO
K1F0 202240Z AUTO 15011KT 10SM CLR 31/18 A2986 RMK AO2 TSNO
K1F0 202220Z AUTO 15008G17KT 10SM CLR 31/18 A2986 RMK AO2 TSNO
K1F0 202135Z AUTO 15011G16KT 10SM SCT050 32/18 A2987 RMK AO2 TSNO
K1F0 202115Z AUTO 16010KT 10SM SCT050 32/17 A2987 RMK AO2 TSNO
K1F0 202055Z AUTO 16009KT 10SM SCT050 32/17 A2987 RMK AO2 TSNO
K1F0 202035Z AUTO 15011G15KT 10SM SCT050 32/17 A2988 RMK AO2 TSNO
K1F0 202015Z AUTO 16010G14KT 10SM CLR 32/17 A2989 RMK AO2 TSNO
K1F0 201955Z AUTO 16012G16KT 10SM CLR 32/17 A2990 RMK AO2 TSNO
K1F0 201935Z AUTO 16008G14KT 120V190 10SM CLR 32/17 A2990 RMK AO2 TSNO
K1F0 201915Z AUTO 16011G19KT 10SM SCT047 32/18 A2991 RMK AO2 TSNO
K1F0 201855Z AUTO 15010G18KT 10SM SCT049 32/18 A2992 RMK AO2 TSNO
K1F0 201835Z AUTO 16009KT 10SM SCT045 SCT050 31/19 A2993 RMK AO2 TSNO
K1F0 201815Z AUTO 13009KT 10SM SCT040 BKN047 31/19 A2994 RMK AO2 TSNO
K1F0 201755Z AUTO 14008KT 10SM SCT040 BKN045 30/19 A2995 RMK AO2 TSNO
K1F0 201735Z AUTO 15009KT 10SM SCT040 30/19 A2996 RMK AO2 TSNO
K1F0 201715Z AUTO 17009KT 10SM SCT035 SCT041 31/19 A2997 RMK AO2 TSNO
K1F0 201655Z AUTO 19008KT 160V220 10SM SCT035 SCT041 30/20 A2997 RMK AO2 TSNO
K1F0 201635Z AUTO 18009G14KT 150V210 10SM CLR 30/20 A2998 RMK AO2 TSNO
K1F0 201615Z AUTO 18005KT 10SM CLR 28/20 A2998 RMK AO2 TSNO
K1F0 201555Z AUTO 17005KT 10SM CLR 28/20 A2998 RMK AO2 TSNO
K1F0 201535Z AUTO 18006KT 10SM CLR 28/20 A2998 RMK AO2 TSNO
K1F0 201515Z AUTO 17004KT 10SM CLR 28/20 A2998 RMK AO2 TSNO
K1F0 201455Z AUTO 17005KT 10SM CLR 27/20 A2997 RMK AO2 TSNO
K1F0 201435Z AUTO 15005KT 10SM CLR 26/21 A2997 RMK AO2 TSNO
K1F0 201415Z AUTO 13005KT 10SM CLR 26/21 A2997 RMK AO2 TSNO
K1F0 201355Z AUTO 16004KT 10SM CLR 25/21 A2997 RMK AO2 TSNO
K1F0 201335Z AUTO 00000KT 10SM CLR 24/21 A2996 RMK AO2 TSNO
K1F0 201315Z AUTO 00000KT 10SM CLR 23/21 A2995 RMK AO2 TSNO
K1F0 201255Z AUTO 00000KT 10SM CLR 22/20 A2994 RMK AO2 TSNO
K1F0 201235Z AUTO 00000KT 10SM CLR 22/20 A2994 RMK AO2 TSNO
K1F0 201215Z AUTO 00000KT 10SM CLR 22/20 A2993 RMK AO2 TSNO
K1F0 201155Z AUTO 00000KT 10SM CLR 22/20 A2993 RMK AO2 TSNO
K1F0 200535Z AUTO 18003KT 10SM CLR 25/21 A2993 RMK AO2 TSNO
K1F0 200515Z AUTO 00000KT 10SM CLR 25/21 A2993 RMK AO2 TSNO
K1F0 200455Z AUTO 00000KT 10SM CLR 25/20 A2993 RMK AO2 TSNO
K1F0 200435Z AUTO 00000KT 10SM CLR 25/20 A2993 RMK AO2 TSNO
K1F0 200415Z AUTO 00000KT 10SM CLR 26/20 A2992 RMK AO2 TSNO
K1F0 200355Z AUTO 00000KT 10SM CLR 25/20 A2992 RMK AO2 TSNO